Flaherty, Kentucky
Current Conditions -  °F | °C
As of 6:58 AM on Monday 20 Oct 2014 (Local Time) from KFTK Reporting Station
Overcast Overcast  
Wind Chill: 46°   Ceiling: 11000
Heat Index: 46°   Visibility: 10mi
Dew Point: 43°   Wind: 3mph
Humidity: 92%   Direction: 180°S
Pressure: 30.03"   Gusts: NA
Location:  37.8337°N, 86.0614°W
Report Text: KFTK 201058Z AUTO 18003KT 10SM BKN110 OVC150 08/06 A3003 RMK AO2 SLP173 T00750063
Loading
Personal Weather Stations






























Interactive Weather Map
Tropical Storm Tracking
New forecast layout! Learn more

10-Day Weather Forecast

Advertisements
Track Severe Weather on mobile